Gleeson, Arizona
Current Conditions -  °F | °C
As of 11:56 PM on Thursday 23 Oct 2014 (Local Time) from KDUG Reporting Station
Clear Clear  
Wind Chill: 54°   Ceiling: Unl
Heat Index: 54°   Visibility: 10mi
Dew Point: 45°   Wind: 7mph
Humidity: 72%   Direction: 10°N
Pressure: 30.18"   Gusts: NA
Location:  31.7341°N, 109.494°W
Report Text: KDUG 240656Z AUTO 01006KT 10SM CLR 12/07 A3018 RMK AO2 SLP166 T01220072 402830083
Loading
Personal Weather Stations






























Interactive Weather Map New forecast layout! Learn more

10-Day Weather Forecast

Advertisements
Track Severe Weather on mobile